sensor_id;sensor_type;location;lat;lon;timestamp;P1;durP1;ratioP1;P2;durP2;ratioP2
16770;SDS011;8503;52.472;13.344;2023-01-25T00:00:09;15.07;;;7.93;;
16770;SDS011;8503;52.472;13.344;2023-01-25T00:01:33;15.07;;;7.80;;
16770;SDS011;8503;52.472;13.344;2023-01-25T00:02:57;17.50;;;7.25;;
16770;SDS011;8503;52.472;13.344;2023-01-25T00:04:20;17.98;;;9.90;;
16770;SDS011;8503;52.472;13.344;2023-01-25T00:05:43;17.15;;;8.98;;
16770;SDS011;8503;52.472;13.344;2023-01-25T00:07:08;13.75;;;8.10;;
16770;SDS011;8503;52.472;13.344;2023-01-25T00:08:30;17.65;;;8.85;;
16770;SDS011;8503;52.472;13.344;2023-01-25T00:09:54;18.17;;;8.98;;
16770;SDS011;8503;52.472;13.344;2023-01-25T00:11:17;17.88;;;8.73;;
16770;SDS011;8503;52.472;13.344;2023-01-25T00:12:41;17.42;;;8.07;;
16770;SDS011;8503;52.472;13.344;2023-01-25T00:14:04;16.92;;;9.40;;
16770;SDS011;8503;52.472;13.344;2023-01-25T00:15:27;18.25;;;8.60;;
16770;SDS011;8503;52.472;13.344;2023-01-25T00:16:51;15.20;;;8.02;;
16770;SDS011;8503;52.472;13.344;2023-01-25T00:18:14;16.33;;;7.88;;
16770;SDS011;8503;52.472;13.344;2023-01-25T00:19:37;18.88;;;8.65;;
16770;SDS011;8503;52.472;13.344;2023-01-25T00:21:10;17.15;;;8.18;;
16770;SDS011;8503;52.472;13.344;2023-01-25T00:22:34;16.75;;;8.30;;
16770;SDS011;8503;52.472;13.344;2023-01-25T00:23:57;18.38;;;8.30;;
16770;SDS011;8503;52.472;13.344;2023-01-25T00:25:20;18.38;;;8.52;;
16770;SDS011;8503;52.472;13.344;2023-01-25T00:26:43;17.25;;;8.10;;
16770;SDS011;8503;52.472;13.344;2023-01-25T00:28:07;16.40;;;8.75;;
16770;SDS011;8503;52.472;13.344;2023-01-25T00:29:29;16.50;;;8.52;;
16770;SDS011;8503;52.472;13.344;2023-01-25T00:30:53;15.95;;;7.97;;
16770;SDS011;8503;52.472;13.344;2023-01-25T00:32:36;15.70;;;8.13;;
16770;SDS011;8503;52.472;13.344;2023-01-25T00:34:05;16.27;;;8.88;;
16770;SDS011;8503;52.472;13.344;2023-01-25T00:35:51;12.57;;;7.50;;
16770;SDS011;8503;52.472;13.344;2023-01-25T00:37:19;16.63;;;8.45;;
16770;SDS011;8503;52.472;13.344;2023-01-25T00:38:46;18.45;;;9.10;;
16770;SDS011;8503;52.472;13.344;2023-01-25T00:40:10;12.48;;;8.48;;
16770;SDS011;8503;52.472;13.344;2023-01-25T00:41:34;16.45;;;8.90;;
16770;SDS011;8503;52.472;13.344;2023-01-25T00:42:58;15.88;;;8.63;;
16770;SDS011;8503;52.472;13.344;2023-01-25T00:44:22;16.58;;;9.65;;
16770;SDS011;8503;52.472;13.344;2023-01-25T00:45:44;16.13;;;8.90;;
16770;SDS011;8503;52.472;13.344;2023-01-25T00:47:08;22.25;;;9.65;;
16770;SDS011;8503;52.472;13.344;2023-01-25T00:48:30;17.02;;;8.75;;
16770;SDS011;8503;52.472;13.344;2023-01-25T00:49:54;14.63;;;9.02;;
16770;SDS011;8503;52.472;13.344;2023-01-25T00:51:16;18.40;;;9.45;;
16770;SDS011;8503;52.472;13.344;2023-01-25T00:52:40;15.13;;;8.30;;
16770;SDS011;8503;52.472;13.344;2023-01-25T00:54:04;17.48;;;8.82;;
16770;SDS011;8503;52.472;13.344;2023-01-25T00:55:27;17.13;;;9.80;;
16770;SDS011;8503;52.472;13.344;2023-01-25T00:56:50;15.02;;;9.32;;
16770;SDS011;8503;52.472;13.344;2023-01-25T00:58:14;18.05;;;10.50;;
16770;SDS011;8503;52.472;13.344;2023-01-25T00:59:37;19.40;;;10.20;;
16770;SDS011;8503;52.472;13.344;2023-01-25T01:01:04;15.93;;;9.75;;
16770;SDS011;8503;52.472;13.344;2023-01-25T01:02:29;18.65;;;9.75;;
16770;SDS011;8503;52.472;13.344;2023-01-25T01:03:53;20.42;;;10.15;;
16770;SDS011;8503;52.472;13.344;2023-01-25T01:05:15;17.42;;;9.82;;
16770;SDS011;8503;52.472;13.344;2023-01-25T01:06:39;18.48;;;9.77;;
16770;SDS011;8503;52.472;13.344;2023-01-25T01:08:02;21.40;;;8.95;;
16770;SDS011;8503;52.472;13.344;2023-01-25T01:09:27;20.63;;;10.13;;
16770;SDS011;8503;52.472;13.344;2023-01-25T01:10:51;17.88;;;9.88;;
16770;SDS011;8503;52.472;13.344;2023-01-25T01:12:18;20.75;;;9.32;;
16770;SDS011;8503;52.472;13.344;2023-01-25T01:13:42;20.27;;;9.85;;
16770;SDS011;8503;52.472;13.344;2023-01-25T01:15:05;16.80;;;10.43;;
16770;SDS011;8503;52.472;13.344;2023-01-25T01:16:29;20.33;;;10.65;;
16770;SDS011;8503;52.472;13.344;2023-01-25T01:17:52;16.58;;;10.27;;
16770;SDS011;8503;52.472;13.344;2023-01-25T01:19:18;18.13;;;9.30;;
16770;SDS011;8503;52.472;13.344;2023-01-25T01:20:46;16.42;;;9.60;;
16770;SDS011;8503;52.472;13.344;2023-01-25T01:22:09;18.50;;;10.48;;
16770;SDS011;8503;52.472;13.344;2023-01-25T01:23:33;20.00;;;9.70;;
16770;SDS011;8503;52.472;13.344;2023-01-25T01:24:57;18.90;;;8.93;;
16770;SDS011;8503;52.472;13.344;2023-01-25T01:26:21;18.77;;;10.68;;
16770;SDS011;8503;52.472;13.344;2023-01-25T01:27:43;18.70;;;10.23;;
16770;SDS011;8503;52.472;13.344;2023-01-25T01:29:07;30.45;;;9.50;;
16770;SDS011;8503;52.472;13.344;2023-01-25T01:30:29;20.13;;;10.40;;
16770;SDS011;8503;52.472;13.344;2023-01-25T01:31:53;15.88;;;10.05;;
16770;SDS011;8503;52.472;13.344;2023-01-25T01:33:17;16.52;;;10.05;;
16770;SDS011;8503;52.472;13.344;2023-01-25T01:34:39;18.10;;;9.75;;
16770;SDS011;8503;52.472;13.344;2023-01-25T01:36:06;21.10;;;10.20;;
16770;SDS011;8503;52.472;13.344;2023-01-25T01:37:28;17.75;;;9.95;;
16770;SDS011;8503;52.472;13.344;2023-01-25T01:38:52;18.73;;;9.95;;
16770;SDS011;8503;52.472;13.344;2023-01-25T01:40:16;16.38;;;9.55;;
16770;SDS011;8503;52.472;13.344;2023-01-25T01:41:39;20.65;;;9.98;;
16770;SDS011;8503;52.472;13.344;2023-01-25T01:43:04;20.63;;;9.88;;
16770;SDS011;8503;52.472;13.344;2023-01-25T01:44:40;17.73;;;9.80;;
16770;SDS011;8503;52.472;13.344;2023-01-25T01:46:08;21.20;;;10.35;;
16770;SDS011;8503;52.472;13.344;2023-01-25T01:47:34;20.83;;;10.07;;
16770;SDS011;8503;52.472;13.344;2023-01-25T01:49:02;18.10;;;10.23;;
16770;SDS011;8503;52.472;13.344;2023-01-25T01:50:28;20.38;;;11.18;;
16770;SDS011;8503;52.472;13.344;2023-01-25T01:51:51;21.75;;;10.23;;
16770;SDS011;8503;52.472;13.344;2023-01-25T01:53:15;19.05;;;9.95;;
16770;SDS011;8503;52.472;13.344;2023-01-25T01:54:39;15.17;;;8.50;;
16770;SDS011;8503;52.472;13.344;2023-01-25T01:56:06;18.85;;;10.57;;
16770;SDS011;8503;52.472;13.344;2023-01-25T01:57:34;14.88;;;9.15;;
16770;SDS011;8503;52.472;13.344;2023-01-25T01:59:02;24.13;;;10.95;;
16770;SDS011;8503;52.472;13.344;2023-01-25T02:00:27;19.90;;;10.25;;
16770;SDS011;8503;52.472;13.344;2023-01-25T02:01:53;17.48;;;10.30;;
16770;SDS011;8503;52.472;13.344;2023-01-25T02:03:17;16.83;;;9.15;;
16770;SDS011;8503;52.472;13.344;2023-01-25T02:04:40;16.17;;;9.95;;
16770;SDS011;8503;52.472;13.344;2023-01-25T02:06:07;15.65;;;8.68;;
16770;SDS011;8503;52.472;13.344;2023-01-25T02:07:34;14.45;;;8.65;;
16770;SDS011;8503;52.472;13.344;2023-01-25T02:08:59;16.60;;;8.82;;
16770;SDS011;8503;52.472;13.344;2023-01-25T02:10:23;15.85;;;9.15;;
16770;SDS011;8503;52.472;13.344;2023-01-25T02:11:48;17.45;;;9.10;;
16770;SDS011;8503;52.472;13.344;2023-01-25T02:13:13;19.05;;;9.38;;
16770;SDS011;8503;52.472;13.344;2023-01-25T02:14:35;21.10;;;9.85;;
16770;SDS011;8503;52.472;13.344;2023-01-25T02:16:00;27.17;;;11.20;;
16770;SDS011;8503;52.472;13.344;2023-01-25T02:17:25;19.83;;;10.02;;
16770;SDS011;8503;52.472;13.344;2023-01-25T02:18:49;20.02;;;11.45;;
16770;SDS011;8503;52.472;13.344;2023-01-25T02:20:15;17.92;;;10.50;;
16770;SDS011;8503;52.472;13.344;2023-01-25T02:21:43;22.25;;;10.77;;
16770;SDS011;8503;52.472;13.344;2023-01-25T02:23:09;23.02;;;12.25;;
16770;SDS011;8503;52.472;13.344;2023-01-25T02:24:34;18.75;;;9.82;;
16770;SDS011;8503;52.472;13.344;2023-01-25T02:26:03;21.02;;;10.98;;
16770;SDS011;8503;52.472;13.344;2023-01-25T02:27:26;19.17;;;10.68;;
16770;SDS011;8503;52.472;13.344;2023-01-25T02:28:51;17.58;;;10.27;;
16770;SDS011;8503;52.472;13.344;2023-01-25T02:30:17;20.45;;;10.98;;
16770;SDS011;8503;52.472;13.344;2023-01-25T02:31:42;20.33;;;10.95;;
16770;SDS011;8503;52.472;13.344;2023-01-25T02:33:06;18.65;;;10.73;;
16770;SDS011;8503;52.472;13.344;2023-01-25T02:34:28;22.40;;;10.73;;
16770;SDS011;8503;52.472;13.344;2023-01-25T02:35:52;22.17;;;10.27;;
16770;SDS011;8503;52.472;13.344;2023-01-25T02:37:18;23.67;;;11.52;;
16770;SDS011;8503;52.472;13.344;2023-01-25T02:38:41;18.15;;;10.40;;
16770;SDS011;8503;52.472;13.344;2023-01-25T02:40:07;20.00;;;11.50;;
16770;SDS011;8503;52.472;13.344;2023-01-25T02:41:33;19.08;;;10.20;;
16770;SDS011;8503;52.472;13.344;2023-01-25T02:42:57;21.92;;;11.40;;
16770;SDS011;8503;52.472;13.344;2023-01-25T02:44:22;18.60;;;9.88;;
16770;SDS011;8503;52.472;13.344;2023-01-25T02:45:46;19.45;;;10.30;;
16770;SDS011;8503;52.472;13.344;2023-01-25T02:47:11;22.08;;;12.07;;
16770;SDS011;8503;52.472;13.344;2023-01-25T02:48:34;23.50;;;11.35;;
16770;SDS011;8503;52.472;13.344;2023-01-25T02:49:57;22.48;;;11.57;;
16770;SDS011;8503;52.472;13.344;2023-01-25T02:51:20;22.08;;;10.85;;
16770;SDS011;8503;52.472;13.344;2023-01-25T02:52:45;24.83;;;11.63;;
16770;SDS011;8503;52.472;13.344;2023-01-25T02:54:09;23.42;;;11.00;;
16770;SDS011;8503;52.472;13.344;2023-01-25T02:55:33;21.20;;;10.85;;
16770;SDS011;8503;52.472;13.344;2023-01-25T02:56:57;19.58;;;11.05;;
16770;SDS011;8503;52.472;13.344;2023-01-25T02:58:21;19.52;;;10.85;;
16770;SDS011;8503;52.472;13.344;2023-01-25T02:59:43;21.55;;;10.77;;
16770;SDS011;8503;52.472;13.344;2023-01-25T03:01:07;21.65;;;12.10;;
16770;SDS011;8503;52.472;13.344;2023-01-25T03:02:30;21.42;;;10.70;;
16770;SDS011;8503;52.472;13.344;2023-01-25T03:03:53;23.70;;;11.38;;
16770;SDS011;8503;52.472;13.344;2023-01-25T03:05:16;20.75;;;10.57;;
16770;SDS011;8503;52.472;13.344;2023-01-25T03:06:39;21.77;;;10.88;;
16770;SDS011;8503;52.472;13.344;2023-01-25T03:08:03;18.13;;;10.30;;
16770;SDS011;8503;52.472;13.344;2023-01-25T03:09:27;19.30;;;10.32;;
16770;SDS011;8503;52.472;13.344;2023-01-25T03:10:50;22.42;;;11.25;;
16770;SDS011;8503;52.472;13.344;2023-01-25T03:12:17;22.60;;;11.32;;
16770;SDS011;8503;52.472;13.344;2023-01-25T03:13:41;20.75;;;10.68;;
16770;SDS011;8503;52.472;13.344;2023-01-25T03:15:05;17.80;;;10.07;;
16770;SDS011;8503;52.472;13.344;2023-01-25T03:16:29;26.02;;;15.38;;
16770;SDS011;8503;52.472;13.344;2023-01-25T03:17:54;29.35;;;17.02;;
16770;SDS011;8503;52.472;13.344;2023-01-25T03:19:17;19.20;;;10.60;;
16770;SDS011;8503;52.472;13.344;2023-01-25T03:20:40;19.73;;;11.10;;
16770;SDS011;8503;52.472;13.344;2023-01-25T03:22:02;13.73;;;8.00;;
16770;SDS011;8503;52.472;13.344;2023-01-25T03:23:27;14.75;;;7.53;;
16770;SDS011;8503;52.472;13.344;2023-01-25T03:24:49;15.45;;;7.40;;
16770;SDS011;8503;52.472;13.344;2023-01-25T03:26:13;13.90;;;7.40;;
16770;SDS011;8503;52.472;13.344;2023-01-25T03:27:38;13.73;;;7.63;;
16770;SDS011;8503;52.472;13.344;2023-01-25T03:29:01;15.55;;;7.28;;
16770;SDS011;8503;52.472;13.344;2023-01-25T03:30:24;14.73;;;7.55;;
16770;SDS011;8503;52.472;13.344;2023-01-25T03:31:47;14.35;;;7.88;;
16770;SDS011;8503;52.472;13.344;2023-01-25T03:33:10;14.10;;;7.65;;
16770;SDS011;8503;52.472;13.344;2023-01-25T03:34:33;10.98;;;5.90;;
16770;SDS011;8503;52.472;13.344;2023-01-25T03:35:56;11.82;;;6.18;;
16770;SDS011;8503;52.472;13.344;2023-01-25T03:37:20;12.07;;;6.78;;
16770;SDS011;8503;52.472;13.344;2023-01-25T03:38:42;11.07;;;6.43;;
16770;SDS011;8503;52.472;13.344;2023-01-25T03:40:06;11.25;;;6.80;;
16770;SDS011;8503;52.472;13.344;2023-01-25T03:41:29;10.25;;;6.25;;
16770;SDS011;8503;52.472;13.344;2023-01-25T03:42:54;13.98;;;6.68;;
16770;SDS011;8503;52.472;13.344;2023-01-25T03:44:17;11.35;;;6.20;;
16770;SDS011;8503;52.472;13.344;2023-01-25T03:45:40;13.95;;;5.13;;
16770;SDS011;8503;52.472;13.344;2023-01-25T03:47:04;8.90;;;5.68;;
16770;SDS011;8503;52.472;13.344;2023-01-25T03:48:27;12.25;;;6.05;;
16770;SDS011;8503;52.472;13.344;2023-01-25T03:49:50;8.43;;;5.50;;
16770;SDS011;8503;52.472;13.344;2023-01-25T03:51:13;11.63;;;6.25;;
16770;SDS011;8503;52.472;13.344;2023-01-25T03:52:36;10.57;;;5.45;;
16770;SDS011;8503;52.472;13.344;2023-01-25T03:54:02;13.35;;;6.68;;
16770;SDS011;8503;52.472;13.344;2023-01-25T03:55:25;14.18;;;7.15;;
16770;SDS011;8503;52.472;13.344;2023-01-25T03:56:49;9.75;;;6.18;;
16770;SDS011;8503;52.472;13.344;2023-01-25T03:58:14;13.85;;;6.70;;
16770;SDS011;8503;52.472;13.344;2023-01-25T03:59:36;13.23;;;6.50;;
16770;SDS011;8503;52.472;13.344;2023-01-25T04:01:00;15.23;;;6.32;;
16770;SDS011;8503;52.472;13.344;2023-01-25T04:02:23;11.02;;;5.93;;
16770;SDS011;8503;52.472;13.344;2023-01-25T04:03:46;11.18;;;5.95;;
16770;SDS011;8503;52.472;13.344;2023-01-25T04:05:10;11.48;;;6.75;;
16770;SDS011;8503;52.472;13.344;2023-01-25T04:06:33;9.05;;;5.30;;
16770;SDS011;8503;52.472;13.344;2023-01-25T04:07:57;9.18;;;5.88;;
16770;SDS011;8503;52.472;13.344;2023-01-25T04:09:19;11.50;;;6.32;;
16770;SDS011;8503;52.472;13.344;2023-01-25T04:10:42;11.55;;;6.45;;
16770;SDS011;8503;52.472;13.344;2023-01-25T04:12:07;12.32;;;6.25;;
16770;SDS011;8503;52.472;13.344;2023-01-25T04:13:31;13.15;;;5.78;;
16770;SDS011;8503;52.472;13.344;2023-01-25T04:14:55;13.77;;;6.20;;
16770;SDS011;8503;52.472;13.344;2023-01-25T04:16:18;12.35;;;5.32;;
16770;SDS011;8503;52.472;13.344;2023-01-25T04:17:42;13.93;;;6.32;;
16770;SDS011;8503;52.472;13.344;2023-01-25T04:19:05;10.07;;;6.20;;
16770;SDS011;8503;52.472;13.344;2023-01-25T04:20:29;13.98;;;6.25;;
16770;SDS011;8503;52.472;13.344;2023-01-25T04:21:51;10.63;;;6.50;;
16770;SDS011;8503;52.472;13.344;2023-01-25T04:23:15;15.55;;;7.35;;
16770;SDS011;8503;52.472;13.344;2023-01-25T04:24:39;10.60;;;6.07;;
16770;SDS011;8503;52.472;13.344;2023-01-25T04:26:03;12.90;;;6.40;;
16770;SDS011;8503;52.472;13.344;2023-01-25T04:27:27;16.85;;;6.35;;
16770;SDS011;8503;52.472;13.344;2023-01-25T04:28:51;13.82;;;7.32;;
16770;SDS011;8503;52.472;13.344;2023-01-25T04:30:17;13.57;;;7.18;;
16770;SDS011;8503;52.472;13.344;2023-01-25T04:31:40;11.40;;;6.18;;
16770;SDS011;8503;52.472;13.344;2023-01-25T04:33:04;14.05;;;6.63;;
16770;SDS011;8503;52.472;13.344;2023-01-25T04:34:28;13.38;;;7.45;;
16770;SDS011;8503;52.472;13.344;2023-01-25T04:35:50;13.43;;;7.07;;
16770;SDS011;8503;52.472;13.344;2023-01-25T04:37:14;9.77;;;5.90;;
16770;SDS011;8503;52.472;13.344;2023-01-25T04:38:37;14.05;;;7.10;;
16770;SDS011;8503;52.472;13.344;2023-01-25T04:40:02;11.45;;;6.40;;
16770;SDS011;8503;52.472;13.344;2023-01-25T04:41:25;14.00;;;6.82;;
16770;SDS011;8503;52.472;13.344;2023-01-25T04:42:49;9.57;;;5.60;;
16770;SDS011;8503;52.472;13.344;2023-01-25T04:44:14;14.15;;;7.55;;
16770;SDS011;8503;52.472;13.344;2023-01-25T04:45:37;9.98;;;6.15;;
16770;SDS011;8503;52.472;13.344;2023-01-25T04:47:01;14.95;;;6.32;;
16770;SDS011;8503;52.472;13.344;2023-01-25T04:48:24;9.43;;;5.38;;
16770;SDS011;8503;52.472;13.344;2023-01-25T04:49:48;11.15;;;5.82;;
16770;SDS011;8503;52.472;13.344;2023-01-25T04:51:10;11.00;;;6.00;;
16770;SDS011;8503;52.472;13.344;2023-01-25T04:52:35;11.90;;;6.18;;
16770;SDS011;8503;52.472;13.344;2023-01-25T04:53:57;11.13;;;6.85;;
16770;SDS011;8503;52.472;13.344;2023-01-25T04:55:21;11.02;;;6.30;;
16770;SDS011;8503;52.472;13.344;2023-01-25T04:56:44;10.70;;;6.20;;
16770;SDS011;8503;52.472;13.344;2023-01-25T04:58:08;9.75;;;5.68;;
16770;SDS011;8503;52.472;13.344;2023-01-25T04:59:32;10.95;;;5.90;;
16770;SDS011;8503;52.472;13.344;2023-01-25T05:00:58;12.13;;;6.00;;
16770;SDS011;8503;52.472;13.344;2023-01-25T05:02:22;11.23;;;5.88;;
16770;SDS011;8503;52.472;13.344;2023-01-25T05:03:46;11.68;;;6.10;;
16770;SDS011;8503;52.472;13.344;2023-01-25T05:05:10;12.07;;;5.93;;
16770;SDS011;8503;52.472;13.344;2023-01-25T05:06:33;11.35;;;5.97;;
16770;SDS011;8503;52.472;13.344;2023-01-25T05:07:56;12.85;;;6.25;;
16770;SDS011;8503;52.472;13.344;2023-01-25T05:09:20;10.48;;;5.93;;
16770;SDS011;8503;52.472;13.344;2023-01-25T05:10:42;11.43;;;6.18;;
16770;SDS011;8503;52.472;13.344;2023-01-25T05:12:06;10.93;;;6.00;;
16770;SDS011;8503;52.472;13.344;2023-01-25T05:13:32;12.95;;;6.60;;
16770;SDS011;8503;52.472;13.344;2023-01-25T05:14:57;14.02;;;6.28;;
16770;SDS011;8503;52.472;13.344;2023-01-25T05:16:20;11.93;;;6.15;;
16770;SDS011;8503;52.472;13.344;2023-01-25T05:17:43;9.30;;;5.00;;
16770;SDS011;8503;52.472;13.344;2023-01-25T05:19:07;9.70;;;5.47;;
16770;SDS011;8503;52.472;13.344;2023-01-25T05:20:30;13.20;;;6.35;;
16770;SDS011;8503;52.472;13.344;2023-01-25T05:21:53;11.93;;;5.95;;
16770;SDS011;8503;52.472;13.344;2023-01-25T05:23:19;12.57;;;6.68;;
16770;SDS011;8503;52.472;13.344;2023-01-25T05:24:42;11.38;;;6.03;;
16770;SDS011;8503;52.472;13.344;2023-01-25T05:26:07;15.80;;;6.68;;
16770;SDS011;8503;52.472;13.344;2023-01-25T05:27:48;13.18;;;6.43;;
16770;SDS011;8503;52.472;13.344;2023-01-25T05:29:11;12.63;;;6.43;;
16770;SDS011;8503;52.472;13.344;2023-01-25T05:30:36;10.73;;;5.45;;
16770;SDS011;8503;52.472;13.344;2023-01-25T05:31:59;10.65;;;5.20;;
16770;SDS011;8503;52.472;13.344;2023-01-25T05:33:22;13.75;;;5.35;;
16770;SDS011;8503;52.472;13.344;2023-01-25T05:34:46;11.80;;;5.60;;
16770;SDS011;8503;52.472;13.344;2023-01-25T05:36:08;11.45;;;5.70;;
16770;SDS011;8503;52.472;13.344;2023-01-25T05:37:32;11.70;;;6.00;;
16770;SDS011;8503;52.472;13.344;2023-01-25T05:38:54;8.85;;;5.53;;
16770;SDS011;8503;52.472;13.344;2023-01-25T05:40:18;10.95;;;5.82;;
16770;SDS011;8503;52.472;13.344;2023-01-25T05:41:40;15.05;;;6.60;;
16770;SDS011;8503;52.472;13.344;2023-01-25T05:43:04;17.45;;;6.60;;
16770;SDS011;8503;52.472;13.344;2023-01-25T05:44:27;10.52;;;6.15;;
16770;SDS011;8503;52.472;13.344;2023-01-25T05:45:52;15.63;;;6.88;;
16770;SDS011;8503;52.472;13.344;2023-01-25T05:47:16;12.40;;;6.82;;
16770;SDS011;8503;52.472;13.344;2023-01-25T05:48:40;10.27;;;6.13;;
16770;SDS011;8503;52.472;13.344;2023-01-25T05:50:03;17.38;;;7.22;;
16770;SDS011;8503;52.472;13.344;2023-01-25T05:51:29;12.13;;;6.35;;
16770;SDS011;8503;52.472;13.344;2023-01-25T05:52:53;9.25;;;5.70;;
16770;SDS011;8503;52.472;13.344;2023-01-25T05:54:15;12.48;;;6.57;;
16770;SDS011;8503;52.472;13.344;2023-01-25T05:55:39;10.38;;;6.25;;
16770;SDS011;8503;52.472;13.344;2023-01-25T05:57:02;10.00;;;5.80;;
16770;SDS011;8503;52.472;13.344;2023-01-25T05:58:25;13.27;;;6.13;;
16770;SDS011;8503;52.472;13.344;2023-01-25T05:59:49;12.90;;;6.30;;
16770;SDS011;8503;52.472;13.344;2023-01-25T06:01:13;14.15;;;7.13;;
16770;SDS011;8503;52.472;13.344;2023-01-25T06:02:37;13.88;;;6.88;;
16770;SDS011;8503;52.472;13.344;2023-01-25T06:04:00;13.63;;;6.22;;
16770;SDS011;8503;52.472;13.344;2023-01-25T06:05:23;10.00;;;6.03;;
16770;SDS011;8503;52.472;13.344;2023-01-25T06:06:46;11.55;;;6.30;;
16770;SDS011;8503;52.472;13.344;2023-01-25T06:08:09;12.20;;;6.10;;
16770;SDS011;8503;52.472;13.344;2023-01-25T06:09:32;12.18;;;6.90;;
16770;SDS011;8503;52.472;13.344;2023-01-25T06:10:55;11.13;;;6.32;;
16770;SDS011;8503;52.472;13.344;2023-01-25T06:12:18;11.27;;;7.05;;
16770;SDS011;8503;52.472;13.344;2023-01-25T06:13:42;14.05;;;7.28;;
16770;SDS011;8503;52.472;13.344;2023-01-25T06:15:05;12.90;;;7.72;;
16770;SDS011;8503;52.472;13.344;2023-01-25T06:16:31;14.05;;;7.72;;
16770;SDS011;8503;52.472;13.344;2023-01-25T06:17:55;15.18;;;8.23;;
16770;SDS011;8503;52.472;13.344;2023-01-25T06:19:19;13.73;;;7.22;;
16770;SDS011;8503;52.472;13.344;2023-01-25T06:20:42;14.95;;;7.72;;
16770;SDS011;8503;52.472;13.344;2023-01-25T06:22:05;14.32;;;7.43;;
16770;SDS011;8503;52.472;13.344;2023-01-25T06:23:29;16.73;;;8.13;;
16770;SDS011;8503;52.472;13.344;2023-01-25T06:24:53;15.70;;;7.75;;
16770;SDS011;8503;52.472;13.344;2023-01-25T06:26:16;14.88;;;8.45;;
16770;SDS011;8503;52.472;13.344;2023-01-25T06:27:41;13.15;;;7.18;;
16770;SDS011;8503;52.472;13.344;2023-01-25T06:29:04;19.70;;;8.60;;
16770;SDS011;8503;52.472;13.344;2023-01-25T06:30:28;15.43;;;7.00;;
16770;SDS011;8503;52.472;13.344;2023-01-25T06:31:52;15.38;;;7.18;;
16770;SDS011;8503;52.472;13.344;2023-01-25T06:33:17;16.08;;;7.68;;
16770;SDS011;8503;52.472;13.344;2023-01-25T06:34:39;14.48;;;8.32;;
16770;SDS011;8503;52.472;13.344;2023-01-25T06:36:04;15.55;;;7.47;;
16770;SDS011;8503;52.472;13.344;2023-01-25T06:37:28;16.48;;;8.30;;
16770;SDS011;8503;52.472;13.344;2023-01-25T06:38:52;17.63;;;8.02;;
16770;SDS011;8503;52.472;13.344;2023-01-25T06:40:15;19.05;;;9.00;;
16770;SDS011;8503;52.472;13.344;2023-01-25T06:41:39;15.20;;;7.30;;
16770;SDS011;8503;52.472;13.344;2023-01-25T06:43:06;15.85;;;8.18;;
16770;SDS011;8503;52.472;13.344;2023-01-25T06:44:30;16.30;;;7.50;;
16770;SDS011;8503;52.472;13.344;2023-01-25T06:45:56;14.25;;;7.88;;
16770;SDS011;8503;52.472;13.344;2023-01-25T06:47:21;14.43;;;7.28;;
16770;SDS011;8503;52.472;13.344;2023-01-25T06:48:45;13.55;;;7.38;;
16770;SDS011;8503;52.472;13.344;2023-01-25T06:50:08;17.92;;;8.05;;
16770;SDS011;8503;52.472;13.344;2023-01-25T06:51:32;14.10;;;7.00;;
16770;SDS011;8503;52.472;13.344;2023-01-25T06:52:58;14.32;;;7.47;;
16770;SDS011;8503;52.472;13.344;2023-01-25T06:54:21;18.33;;;7.68;;
16770;SDS011;8503;52.472;13.344;2023-01-25T06:55:44;16.08;;;7.60;;
16770;SDS011;8503;52.472;13.344;2023-01-25T06:57:08;15.60;;;7.60;;
16770;SDS011;8503;52.472;13.344;2023-01-25T06:58:32;13.48;;;7.68;;
16770;SDS011;8503;52.472;13.344;2023-01-25T06:59:55;14.95;;;7.75;;
16770;SDS011;8503;52.472;13.344;2023-01-25T07:01:20;15.25;;;7.70;;
16770;SDS011;8503;52.472;13.344;2023-01-25T07:02:48;18.98;;;8.07;;
16770;SDS011;8503;52.472;13.344;2023-01-25T07:04:12;16.45;;;8.45;;
16770;SDS011;8503;52.472;13.344;2023-01-25T07:05:35;14.48;;;8.38;;
16770;SDS011;8503;52.472;13.344;2023-01-25T07:06:59;14.52;;;8.65;;
16770;SDS011;8503;52.472;13.344;2023-01-25T07:08:22;15.38;;;8.77;;
16770;SDS011;8503;52.472;13.344;2023-01-25T07:09:46;15.45;;;9.05;;
16770;SDS011;8503;52.472;13.344;2023-01-25T07:11:10;20.73;;;9.75;;
16770;SDS011;8503;52.472;13.344;2023-01-25T07:12:34;20.17;;;9.48;;
16770;SDS011;8503;52.472;13.344;2023-01-25T07:14:01;15.70;;;8.45;;
16770;SDS011;8503;52.472;13.344;2023-01-25T07:15:24;16.85;;;9.05;;
16770;SDS011;8503;52.472;13.344;2023-01-25T07:16:48;17.48;;;9.15;;
16770;SDS011;8503;52.472;13.344;2023-01-25T07:18:13;19.08;;;9.32;;
16770;SDS011;8503;52.472;13.344;2023-01-25T07:19:37;17.35;;;9.50;;
16770;SDS011;8503;52.472;13.344;2023-01-25T07:21:03;20.08;;;9.95;;
16770;SDS011;8503;52.472;13.344;2023-01-25T07:22:28;17.10;;;9.30;;
16770;SDS011;8503;52.472;13.344;2023-01-25T07:23:51;16.00;;;9.35;;
16770;SDS011;8503;52.472;13.344;2023-01-25T07:25:15;19.15;;;8.77;;
16770;SDS011;8503;52.472;13.344;2023-01-25T07:26:38;17.85;;;9.77;;
16770;SDS011;8503;52.472;13.344;2023-01-25T07:28:02;17.35;;;9.23;;
16770;SDS011;8503;52.472;13.344;2023-01-25T07:29:27;17.90;;;9.07;;
16770;SDS011;8503;52.472;13.344;2023-01-25T07:30:50;18.70;;;10.57;;
16770;SDS011;8503;52.472;13.344;2023-01-25T07:32:14;18.58;;;9.02;;
16770;SDS011;8503;52.472;13.344;2023-01-25T07:33:39;17.85;;;10.05;;
16770;SDS011;8503;52.472;13.344;2023-01-25T07:35:05;19.30;;;10.25;;
16770;SDS011;8503;52.472;13.344;2023-01-25T07:36:29;24.02;;;11.07;;
16770;SDS011;8503;52.472;13.344;2023-01-25T07:37:54;21.08;;;10.75;;
16770;SDS011;8503;52.472;13.344;2023-01-25T07:39:17;16.92;;;9.20;;
16770;SDS011;8503;52.472;13.344;2023-01-25T07:40:41;26.45;;;10.35;;
16770;SDS011;8503;52.472;13.344;2023-01-25T07:42:04;21.83;;;10.57;;
16770;SDS011;8503;52.472;13.344;2023-01-25T07:43:28;20.60;;;9.70;;
16770;SDS011;8503;52.472;13.344;2023-01-25T07:44:52;17.75;;;10.30;;
16770;SDS011;8503;52.472;13.344;2023-01-25T07:46:15;20.42;;;11.52;;
16770;SDS011;8503;52.472;13.344;2023-01-25T07:47:39;19.88;;;10.30;;
16770;SDS011;8503;52.472;13.344;2023-01-25T07:49:04;18.73;;;9.82;;
16770;SDS011;8503;52.472;13.344;2023-01-25T07:50:27;19.23;;;10.25;;
16770;SDS011;8503;52.472;13.344;2023-01-25T07:51:51;19.05;;;9.98;;
16770;SDS011;8503;52.472;13.344;2023-01-25T07:53:15;22.10;;;9.90;;
16770;SDS011;8503;52.472;13.344;2023-01-25T07:54:38;19.38;;;9.43;;
16770;SDS011;8503;52.472;13.344;2023-01-25T07:56:02;18.02;;;9.88;;
16770;SDS011;8503;52.472;13.344;2023-01-25T07:57:24;18.27;;;9.13;;
16770;SDS011;8503;52.472;13.344;2023-01-25T07:58:49;18.90;;;9.45;;
16770;SDS011;8503;52.472;13.344;2023-01-25T08:00:14;23.05;;;9.85;;
16770;SDS011;8503;52.472;13.344;2023-01-25T08:01:38;19.02;;;9.68;;
16770;SDS011;8503;52.472;13.344;2023-01-25T08:03:02;21.00;;;10.90;;
16770;SDS011;8503;52.472;13.344;2023-01-25T08:04:29;27.35;;;9.63;;
16770;SDS011;8503;52.472;13.344;2023-01-25T08:05:52;20.25;;;9.07;;
16770;SDS011;8503;52.472;13.344;2023-01-25T08:07:16;16.33;;;8.45;;
16770;SDS011;8503;52.472;13.344;2023-01-25T08:08:41;16.25;;;8.77;;
16770;SDS011;8503;52.472;13.344;2023-01-25T08:10:06;19.33;;;8.57;;
16770;SDS011;8503;52.472;13.344;2023-01-25T08:11:31;18.00;;;9.07;;
16770;SDS011;8503;52.472;13.344;2023-01-25T08:12:55;21.33;;;8.80;;
16770;SDS011;8503;52.472;13.344;2023-01-25T08:14:18;21.48;;;9.40;;
16770;SDS011;8503;52.472;13.344;2023-01-25T08:15:41;21.23;;;8.65;;
16770;SDS011;8503;52.472;13.344;2023-01-25T08:17:05;16.98;;;8.23;;